sensor_id;sensor_type;location;lat;lon;timestamp;P1;durP1;ratioP1;P2;durP2;ratioP2
705;SDS011;21234;48.690;9.016;2022-10-19T00:01:42;9.50;;;7.03;;
705;SDS011;21234;48.690;9.016;2022-10-19T00:04:09;8.57;;;6.90;;
705;SDS011;21234;48.690;9.016;2022-10-19T00:06:36;9.90;;;7.07;;
705;SDS011;21234;48.690;9.016;2022-10-19T00:09:04;9.87;;;6.80;;
705;SDS011;21234;48.690;9.016;2022-10-19T00:11:35;7.77;;;6.93;;
705;SDS011;21234;48.690;9.016;2022-10-19T00:14:04;10.47;;;5.87;;
705;SDS011;21234;48.690;9.016;2022-10-19T00:16:32;8.47;;;7.63;;
705;SDS011;21234;48.690;9.016;2022-10-19T00:19:02;10.03;;;7.00;;
705;SDS011;21234;48.690;9.016;2022-10-19T00:21:31;10.57;;;7.77;;
705;SDS011;21234;48.690;9.016;2022-10-19T00:23:58;11.23;;;8.17;;
705;SDS011;21234;48.690;9.016;2022-10-19T00:26:25;9.77;;;6.80;;
705;SDS011;21234;48.690;9.016;2022-10-19T00:28:53;12.10;;;7.70;;
705;SDS011;21234;48.690;9.016;2022-10-19T00:31:20;9.10;;;7.50;;
705;SDS011;21234;48.690;9.016;2022-10-19T00:33:48;5.83;;;5.33;;
705;SDS011;21234;48.690;9.016;2022-10-19T00:36:15;9.77;;;7.50;;
705;SDS011;21234;48.690;9.016;2022-10-19T00:38:43;8.77;;;6.80;;
705;SDS011;21234;48.690;9.016;2022-10-19T00:41:10;8.00;;;6.97;;
705;SDS011;21234;48.690;9.016;2022-10-19T00:43:51;8.37;;;6.47;;
705;SDS011;21234;48.690;9.016;2022-10-19T00:46:21;7.10;;;5.80;;
705;SDS011;21234;48.690;9.016;2022-10-19T00:48:48;8.00;;;7.30;;
705;SDS011;21234;48.690;9.016;2022-10-19T00:51:17;14.73;;;6.20;;
705;SDS011;21234;48.690;9.016;2022-10-19T00:53:44;8.23;;;6.40;;
705;SDS011;21234;48.690;9.016;2022-10-19T00:56:12;8.33;;;6.57;;
705;SDS011;21234;48.690;9.016;2022-10-19T00:58:42;11.40;;;6.90;;
705;SDS011;21234;48.690;9.016;2022-10-19T01:01:12;7.57;;;6.37;;
705;SDS011;21234;48.690;9.016;2022-10-19T01:03:41;8.00;;;6.10;;
705;SDS011;21234;48.690;9.016;2022-10-19T01:06:08;9.80;;;5.80;;
705;SDS011;21234;48.690;9.016;2022-10-19T01:08:36;9.93;;;6.80;;
705;SDS011;21234;48.690;9.016;2022-10-19T01:11:07;12.23;;;6.50;;
705;SDS011;21234;48.690;9.016;2022-10-19T01:13:46;7.83;;;6.80;;
705;SDS011;21234;48.690;9.016;2022-10-19T01:16:23;10.93;;;8.27;;
705;SDS011;21234;48.690;9.016;2022-10-19T01:19:05;16.70;;;9.40;;
705;SDS011;21234;48.690;9.016;2022-10-19T01:21:51;16.73;;;8.80;;
705;SDS011;21234;48.690;9.016;2022-10-19T01:24:34;12.50;;;8.70;;
705;SDS011;21234;48.690;9.016;2022-10-19T01:27:35;15.33;;;7.47;;
705;SDS011;21234;48.690;9.016;2022-10-19T01:30:15;12.00;;;8.07;;
705;SDS011;21234;48.690;9.016;2022-10-19T01:33:11;12.03;;;8.53;;
705;SDS011;21234;48.690;9.016;2022-10-19T01:35:49;9.67;;;7.27;;
705;SDS011;21234;48.690;9.016;2022-10-19T01:38:27;11.67;;;8.60;;
705;SDS011;21234;48.690;9.016;2022-10-19T01:41:00;16.37;;;11.57;;
705;SDS011;21234;48.690;9.016;2022-10-19T01:43:39;13.90;;;8.63;;
705;SDS011;21234;48.690;9.016;2022-10-19T01:46:12;11.10;;;7.90;;
705;SDS011;21234;48.690;9.016;2022-10-19T01:48:44;13.63;;;9.00;;
705;SDS011;21234;48.690;9.016;2022-10-19T01:51:17;12.90;;;9.60;;
705;SDS011;21234;48.690;9.016;2022-10-19T01:53:48;13.80;;;8.07;;
705;SDS011;21234;48.690;9.016;2022-10-19T01:56:18;12.43;;;8.83;;
705;SDS011;21234;48.690;9.016;2022-10-19T01:58:49;12.80;;;8.03;;
705;SDS011;21234;48.690;9.016;2022-10-19T02:01:19;10.73;;;6.50;;
705;SDS011;21234;48.690;9.016;2022-10-19T02:03:48;10.90;;;7.60;;
705;SDS011;21234;48.690;9.016;2022-10-19T02:06:16;7.90;;;6.90;;
705;SDS011;21234;48.690;9.016;2022-10-19T02:08:45;9.57;;;7.50;;
705;SDS011;21234;48.690;9.016;2022-10-19T02:11:13;13.57;;;8.30;;
705;SDS011;21234;48.690;9.016;2022-10-19T02:13:41;12.87;;;8.23;;
705;SDS011;21234;48.690;9.016;2022-10-19T02:16:10;12.80;;;10.00;;
705;SDS011;21234;48.690;9.016;2022-10-19T02:18:43;9.90;;;7.80;;
705;SDS011;21234;48.690;9.016;2022-10-19T02:21:12;16.63;;;8.10;;
705;SDS011;21234;48.690;9.016;2022-10-19T02:23:39;18.07;;;10.37;;
705;SDS011;21234;48.690;9.016;2022-10-19T02:26:06;23.93;;;8.60;;
705;SDS011;21234;48.690;9.016;2022-10-19T02:28:33;16.10;;;8.70;;
705;SDS011;21234;48.690;9.016;2022-10-19T02:31:01;26.40;;;8.90;;
705;SDS011;21234;48.690;9.016;2022-10-19T02:33:28;40.13;;;8.70;;
705;SDS011;21234;48.690;9.016;2022-10-19T02:35:57;22.40;;;8.33;;
705;SDS011;21234;48.690;9.016;2022-10-19T02:38:25;19.20;;;9.73;;
705;SDS011;21234;48.690;9.016;2022-10-19T02:40:54;18.83;;;9.90;;
705;SDS011;21234;48.690;9.016;2022-10-19T02:43:25;17.90;;;9.83;;
705;SDS011;21234;48.690;9.016;2022-10-19T02:45:55;16.90;;;10.03;;
705;SDS011;21234;48.690;9.016;2022-10-19T02:48:26;21.43;;;10.43;;
705;SDS011;21234;48.690;9.016;2022-10-19T02:50:58;20.27;;;10.50;;
705;SDS011;21234;48.690;9.016;2022-10-19T02:53:25;16.80;;;9.20;;
705;SDS011;21234;48.690;9.016;2022-10-19T02:55:51;25.33;;;12.73;;
705;SDS011;21234;48.690;9.016;2022-10-19T02:58:18;19.90;;;12.37;;
705;SDS011;21234;48.690;9.016;2022-10-19T03:00:45;21.13;;;11.03;;
705;SDS011;21234;48.690;9.016;2022-10-19T03:03:11;21.93;;;12.10;;
705;SDS011;21234;48.690;9.016;2022-10-19T03:05:38;24.87;;;11.67;;
705;SDS011;21234;48.690;9.016;2022-10-19T03:08:06;21.73;;;12.00;;
705;SDS011;21234;48.690;9.016;2022-10-19T03:10:33;21.93;;;11.73;;
705;SDS011;21234;48.690;9.016;2022-10-19T03:12:59;23.80;;;11.50;;
705;SDS011;21234;48.690;9.016;2022-10-19T03:15:26;23.00;;;11.10;;
705;SDS011;21234;48.690;9.016;2022-10-19T03:17:54;28.93;;;12.33;;
705;SDS011;21234;48.690;9.016;2022-10-19T03:20:21;23.63;;;10.83;;
705;SDS011;21234;48.690;9.016;2022-10-19T03:22:48;25.50;;;13.27;;
705;SDS011;21234;48.690;9.016;2022-10-19T03:25:17;21.63;;;12.90;;
705;SDS011;21234;48.690;9.016;2022-10-19T03:27:44;24.20;;;13.67;;
705;SDS011;21234;48.690;9.016;2022-10-19T03:30:10;18.70;;;10.43;;
705;SDS011;21234;48.690;9.016;2022-10-19T03:32:37;29.40;;;15.37;;
705;SDS011;21234;48.690;9.016;2022-10-19T03:35:04;24.97;;;12.60;;
705;SDS011;21234;48.690;9.016;2022-10-19T03:37:32;23.23;;;14.07;;
705;SDS011;21234;48.690;9.016;2022-10-19T03:39:58;19.63;;;12.30;;
705;SDS011;21234;48.690;9.016;2022-10-19T03:42:26;29.83;;;13.10;;
705;SDS011;21234;48.690;9.016;2022-10-19T03:44:53;23.23;;;13.47;;
705;SDS011;21234;48.690;9.016;2022-10-19T03:47:20;26.13;;;12.70;;
705;SDS011;21234;48.690;9.016;2022-10-19T03:49:46;24.33;;;12.67;;
705;SDS011;21234;48.690;9.016;2022-10-19T03:52:14;29.73;;;13.07;;
705;SDS011;21234;48.690;9.016;2022-10-19T03:54:41;27.20;;;12.97;;
705;SDS011;21234;48.690;9.016;2022-10-19T03:57:08;27.27;;;12.23;;
705;SDS011;21234;48.690;9.016;2022-10-19T03:59:36;20.87;;;12.13;;
705;SDS011;21234;48.690;9.016;2022-10-19T04:02:03;27.07;;;13.60;;
705;SDS011;21234;48.690;9.016;2022-10-19T04:04:30;26.90;;;12.50;;
705;SDS011;21234;48.690;9.016;2022-10-19T04:06:57;17.53;;;10.63;;
705;SDS011;21234;48.690;9.016;2022-10-19T04:09:23;27.50;;;13.33;;
705;SDS011;21234;48.690;9.016;2022-10-19T04:11:50;20.57;;;10.90;;
705;SDS011;21234;48.690;9.016;2022-10-19T04:14:17;21.80;;;12.30;;
705;SDS011;21234;48.690;9.016;2022-10-19T04:16:49;21.03;;;11.50;;
705;SDS011;21234;48.690;9.016;2022-10-19T04:19:15;20.37;;;11.70;;
705;SDS011;21234;48.690;9.016;2022-10-19T04:21:42;23.73;;;11.00;;
705;SDS011;21234;48.690;9.016;2022-10-19T04:24:10;29.87;;;13.00;;
705;SDS011;21234;48.690;9.016;2022-10-19T04:26:38;28.03;;;15.20;;
705;SDS011;21234;48.690;9.016;2022-10-19T04:29:07;27.43;;;13.23;;
705;SDS011;21234;48.690;9.016;2022-10-19T04:31:33;30.50;;;14.80;;
705;SDS011;21234;48.690;9.016;2022-10-19T04:34:01;33.63;;;14.20;;
705;SDS011;21234;48.690;9.016;2022-10-19T04:36:28;29.97;;;13.87;;
705;SDS011;21234;48.690;9.016;2022-10-19T04:38:55;34.13;;;15.07;;
705;SDS011;21234;48.690;9.016;2022-10-19T04:41:22;24.00;;;15.03;;
705;SDS011;21234;48.690;9.016;2022-10-19T04:43:53;25.50;;;12.77;;
705;SDS011;21234;48.690;9.016;2022-10-19T04:46:21;22.20;;;11.57;;
705;SDS011;21234;48.690;9.016;2022-10-19T04:48:48;30.83;;;15.50;;
705;SDS011;21234;48.690;9.016;2022-10-19T04:51:17;23.60;;;12.17;;
705;SDS011;21234;48.690;9.016;2022-10-19T04:53:45;27.30;;;14.77;;
705;SDS011;21234;48.690;9.016;2022-10-19T04:56:13;26.90;;;13.10;;
705;SDS011;21234;48.690;9.016;2022-10-19T04:58:41;30.20;;;14.43;;
705;SDS011;21234;48.690;9.016;2022-10-19T05:01:08;26.07;;;15.37;;
705;SDS011;21234;48.690;9.016;2022-10-19T05:03:36;26.67;;;15.70;;
705;SDS011;21234;48.690;9.016;2022-10-19T05:06:03;22.33;;;13.07;;
705;SDS011;21234;48.690;9.016;2022-10-19T05:08:32;32.27;;;14.70;;
705;SDS011;21234;48.690;9.016;2022-10-19T05:10:59;27.47;;;13.73;;
705;SDS011;21234;48.690;9.016;2022-10-19T05:13:27;31.73;;;14.60;;
705;SDS011;21234;48.690;9.016;2022-10-19T05:15:54;26.87;;;12.97;;
705;SDS011;21234;48.690;9.016;2022-10-19T05:18:22;25.77;;;13.20;;
705;SDS011;21234;48.690;9.016;2022-10-19T05:20:49;24.83;;;13.33;;
705;SDS011;21234;48.690;9.016;2022-10-19T05:23:15;32.80;;;16.00;;
705;SDS011;21234;48.690;9.016;2022-10-19T05:25:43;24.47;;;14.87;;
705;SDS011;21234;48.690;9.016;2022-10-19T05:28:10;26.50;;;13.03;;
705;SDS011;21234;48.690;9.016;2022-10-19T05:30:37;25.83;;;16.83;;
705;SDS011;21234;48.690;9.016;2022-10-19T05:33:04;29.07;;;13.93;;
705;SDS011;21234;48.690;9.016;2022-10-19T05:35:30;29.60;;;13.23;;
705;SDS011;21234;48.690;9.016;2022-10-19T05:37:57;22.97;;;13.70;;
705;SDS011;21234;48.690;9.016;2022-10-19T05:40:24;25.50;;;14.97;;
705;SDS011;21234;48.690;9.016;2022-10-19T05:42:52;22.87;;;14.50;;
705;SDS011;21234;48.690;9.016;2022-10-19T05:45:18;30.93;;;13.57;;
705;SDS011;21234;48.690;9.016;2022-10-19T05:47:45;34.33;;;17.07;;
705;SDS011;21234;48.690;9.016;2022-10-19T05:50:12;24.60;;;14.70;;
705;SDS011;21234;48.690;9.016;2022-10-19T05:52:39;27.73;;;14.03;;
705;SDS011;21234;48.690;9.016;2022-10-19T05:55:06;24.30;;;13.50;;
705;SDS011;21234;48.690;9.016;2022-10-19T05:57:33;27.40;;;13.97;;
705;SDS011;21234;48.690;9.016;2022-10-19T06:00:01;28.67;;;14.70;;
705;SDS011;21234;48.690;9.016;2022-10-19T06:02:30;22.53;;;12.80;;
705;SDS011;21234;48.690;9.016;2022-10-19T06:04:57;27.27;;;13.40;;
705;SDS011;21234;48.690;9.016;2022-10-19T06:07:23;28.10;;;14.73;;
705;SDS011;21234;48.690;9.016;2022-10-19T06:09:50;29.10;;;14.20;;
705;SDS011;21234;48.690;9.016;2022-10-19T06:12:17;29.10;;;15.80;;
705;SDS011;21234;48.690;9.016;2022-10-19T06:14:44;26.30;;;14.73;;
705;SDS011;21234;48.690;9.016;2022-10-19T06:17:12;26.50;;;13.57;;
705;SDS011;21234;48.690;9.016;2022-10-19T06:19:38;25.90;;;13.97;;
705;SDS011;21234;48.690;9.016;2022-10-19T06:22:05;37.13;;;15.20;;
705;SDS011;21234;48.690;9.016;2022-10-19T06:24:32;32.07;;;16.13;;
705;SDS011;21234;48.690;9.016;2022-10-19T06:26:58;30.37;;;15.50;;
705;SDS011;21234;48.690;9.016;2022-10-19T06:29:25;30.43;;;15.30;;
705;SDS011;21234;48.690;9.016;2022-10-19T06:31:52;26.20;;;13.17;;
705;SDS011;21234;48.690;9.016;2022-10-19T06:34:21;20.00;;;11.90;;
705;SDS011;21234;48.690;9.016;2022-10-19T06:36:48;25.10;;;10.07;;
705;SDS011;21234;48.690;9.016;2022-10-19T06:39:14;19.10;;;10.70;;
705;SDS011;21234;48.690;9.016;2022-10-19T06:41:41;15.37;;;9.50;;
705;SDS011;21234;48.690;9.016;2022-10-19T06:44:08;23.60;;;11.97;;
705;SDS011;21234;48.690;9.016;2022-10-19T06:46:35;21.37;;;12.20;;
705;SDS011;21234;48.690;9.016;2022-10-19T06:49:01;22.20;;;13.73;;
705;SDS011;21234;48.690;9.016;2022-10-19T06:51:30;18.90;;;11.70;;
705;SDS011;21234;48.690;9.016;2022-10-19T06:53:58;31.10;;;13.47;;
705;SDS011;21234;48.690;9.016;2022-10-19T06:56:25;19.23;;;11.37;;
705;SDS011;21234;48.690;9.016;2022-10-19T06:58:52;21.70;;;11.87;;
705;SDS011;21234;48.690;9.016;2022-10-19T07:01:19;23.43;;;15.00;;
705;SDS011;21234;48.690;9.016;2022-10-19T07:03:46;23.70;;;14.03;;
705;SDS011;21234;48.690;9.016;2022-10-19T07:06:15;24.47;;;14.73;;
705;SDS011;21234;48.690;9.016;2022-10-19T07:08:43;21.00;;;12.40;;
705;SDS011;21234;48.690;9.016;2022-10-19T07:11:11;17.50;;;11.50;;
705;SDS011;21234;48.690;9.016;2022-10-19T07:13:39;18.77;;;12.43;;
705;SDS011;21234;48.690;9.016;2022-10-19T07:16:07;22.67;;;13.47;;
705;SDS011;21234;48.690;9.016;2022-10-19T07:18:36;21.30;;;12.47;;
705;SDS011;21234;48.690;9.016;2022-10-19T07:21:04;19.87;;;11.80;;
705;SDS011;21234;48.690;9.016;2022-10-19T07:23:33;22.87;;;13.17;;
705;SDS011;21234;48.690;9.016;2022-10-19T07:26:07;22.23;;;12.93;;
705;SDS011;21234;48.690;9.016;2022-10-19T07:28:36;16.20;;;12.03;;
705;SDS011;21234;48.690;9.016;2022-10-19T07:31:04;17.20;;;12.87;;
705;SDS011;21234;48.690;9.016;2022-10-19T07:33:31;22.47;;;11.97;;
705;SDS011;21234;48.690;9.016;2022-10-19T07:35:58;17.97;;;12.07;;
705;SDS011;21234;48.690;9.016;2022-10-19T07:38:26;18.50;;;11.00;;
705;SDS011;21234;48.690;9.016;2022-10-19T07:40:58;14.87;;;10.50;;
705;SDS011;21234;48.690;9.016;2022-10-19T07:43:27;16.50;;;10.40;;
705;SDS011;21234;48.690;9.016;2022-10-19T07:45:56;18.10;;;10.73;;
705;SDS011;21234;48.690;9.016;2022-10-19T07:48:23;14.30;;;8.90;;
705;SDS011;21234;48.690;9.016;2022-10-19T07:50:50;17.60;;;9.13;;
705;SDS011;21234;48.690;9.016;2022-10-19T07:53:17;13.70;;;9.67;;
705;SDS011;21234;48.690;9.016;2022-10-19T07:55:43;13.33;;;8.47;;
705;SDS011;21234;48.690;9.016;2022-10-19T07:58:10;10.37;;;8.17;;
705;SDS011;21234;48.690;9.016;2022-10-19T08:00:38;11.30;;;8.47;;
705;SDS011;21234;48.690;9.016;2022-10-19T08:03:05;12.43;;;7.70;;
705;SDS011;21234;48.690;9.016;2022-10-19T08:05:32;14.87;;;8.30;;
705;SDS011;21234;48.690;9.016;2022-10-19T08:07:59;11.80;;;8.30;;
705;SDS011;21234;48.690;9.016;2022-10-19T08:10:26;12.53;;;8.60;;
705;SDS011;21234;48.690;9.016;2022-10-19T08:12:53;10.10;;;7.87;;
705;SDS011;21234;48.690;9.016;2022-10-19T08:15:19;11.00;;;8.93;;
705;SDS011;21234;48.690;9.016;2022-10-19T08:17:47;14.90;;;9.47;;
705;SDS011;21234;48.690;9.016;2022-10-19T08:20:14;8.63;;;7.07;;
705;SDS011;21234;48.690;9.016;2022-10-19T08:22:41;11.07;;;7.80;;
705;SDS011;21234;48.690;9.016;2022-10-19T08:25:09;12.97;;;9.43;;
705;SDS011;21234;48.690;9.016;2022-10-19T08:27:35;12.47;;;8.00;;
705;SDS011;21234;48.690;9.016;2022-10-19T08:30:02;13.70;;;7.50;;
705;SDS011;21234;48.690;9.016;2022-10-19T08:32:29;10.17;;;6.80;;
705;SDS011;21234;48.690;9.016;2022-10-19T08:34:57;10.70;;;8.30;;
705;SDS011;21234;48.690;9.016;2022-10-19T08:37:24;11.37;;;8.37;;
705;SDS011;21234;48.690;9.016;2022-10-19T08:39:51;14.40;;;8.43;;
705;SDS011;21234;48.690;9.016;2022-10-19T08:42:18;11.57;;;8.57;;
705;SDS011;21234;48.690;9.016;2022-10-19T08:44:52;11.77;;;7.40;;
705;SDS011;21234;48.690;9.016;2022-10-19T08:47:42;12.87;;;8.97;;
705;SDS011;21234;48.690;9.016;2022-10-19T08:50:22;12.80;;;8.43;;
705;SDS011;21234;48.690;9.016;2022-10-19T08:52:52;9.93;;;7.10;;
705;SDS011;21234;48.690;9.016;2022-10-19T08:55:26;9.80;;;6.87;;
705;SDS011;21234;48.690;9.016;2022-10-19T08:58:02;12.63;;;8.30;;
705;SDS011;21234;48.690;9.016;2022-10-19T09:00:39;11.40;;;7.50;;
705;SDS011;21234;48.690;9.016;2022-10-19T09:03:14;14.23;;;9.20;;
705;SDS011;21234;48.690;9.016;2022-10-19T09:05:51;9.97;;;8.47;;
705;SDS011;21234;48.690;9.016;2022-10-19T09:08:24;12.23;;;9.20;;
705;SDS011;21234;48.690;9.016;2022-10-19T09:10:51;13.93;;;8.33;;
705;SDS011;21234;48.690;9.016;2022-10-19T09:13:21;12.13;;;10.80;;
705;SDS011;21234;48.690;9.016;2022-10-19T09:15:59;19.60;;;14.50;;
705;SDS011;21234;48.690;9.016;2022-10-19T09:18:27;13.40;;;7.50;;
705;SDS011;21234;48.690;9.016;2022-10-19T09:20:59;10.17;;;8.13;;
705;SDS011;21234;48.690;9.016;2022-10-19T09:23:32;14.17;;;8.77;;
705;SDS011;21234;48.690;9.016;2022-10-19T09:26:04;10.77;;;7.80;;
705;SDS011;21234;48.690;9.016;2022-10-19T09:28:43;11.77;;;7.10;;
705;SDS011;21234;48.690;9.016;2022-10-19T09:31:14;9.67;;;7.17;;
705;SDS011;21234;48.690;9.016;2022-10-19T09:33:49;13.93;;;8.17;;
705;SDS011;21234;48.690;9.016;2022-10-19T09:36:21;11.20;;;8.10;;
705;SDS011;21234;48.690;9.016;2022-10-19T09:38:48;9.47;;;7.70;;
705;SDS011;21234;48.690;9.016;2022-10-19T09:41:16;10.00;;;6.70;;
705;SDS011;21234;48.690;9.016;2022-10-19T09:43:46;14.13;;;7.83;;
705;SDS011;21234;48.690;9.016;2022-10-19T09:46:25;10.90;;;8.20;;
705;SDS011;21234;48.690;9.016;2022-10-19T09:49:02;13.73;;;8.20;;
705;SDS011;21234;48.690;9.016;2022-10-19T09:51:43;12.10;;;8.63;;
705;SDS011;21234;48.690;9.016;2022-10-19T09:54:22;14.07;;;9.83;;
705;SDS011;21234;48.690;9.016;2022-10-19T09:56:54;19.03;;;9.83;;
705;SDS011;21234;48.690;9.016;2022-10-19T09:59:22;14.67;;;12.27;;
705;SDS011;21234;48.690;9.016;2022-10-19T10:02:03;21.27;;;17.50;;
705;SDS011;21234;48.690;9.016;2022-10-19T10:04:40;13.67;;;10.10;;
705;SDS011;21234;48.690;9.016;2022-10-19T10:07:10;11.30;;;9.27;;
705;SDS011;21234;48.690;9.016;2022-10-19T10:09:41;13.77;;;11.10;;
705;SDS011;21234;48.690;9.016;2022-10-19T10:12:09;14.27;;;10.27;;
705;SDS011;21234;48.690;9.016;2022-10-19T10:14:38;17.20;;;12.93;;
705;SDS011;21234;48.690;9.016;2022-10-19T10:17:06;15.47;;;11.70;;
705;SDS011;21234;48.690;9.016;2022-10-19T10:19:47;13.43;;;10.47;;
705;SDS011;21234;48.690;9.016;2022-10-19T10:22:23;16.73;;;12.90;;
705;SDS011;21234;48.690;9.016;2022-10-19T10:24:52;16.70;;;13.13;;
705;SDS011;21234;48.690;9.016;2022-10-19T10:27:24;15.30;;;11.87;;
705;SDS011;21234;48.690;9.016;2022-10-19T10:29:55;17.03;;;11.50;;
705;SDS011;21234;48.690;9.016;2022-10-19T10:32:23;17.60;;;13.97;;
705;SDS011;21234;48.690;9.016;2022-10-19T10:34:55;11.80;;;9.97;;
705;SDS011;21234;48.690;9.016;2022-10-19T10:37:27;13.70;;;12.27;;
705;SDS011;21234;48.690;9.016;2022-10-19T10:39:58;19.37;;;14.50;;
705;SDS011;21234;48.690;9.016;2022-10-19T10:42:27;15.47;;;13.87;;
705;SDS011;21234;48.690;9.016;2022-10-19T10:44:56;15.20;;;10.50;;
705;SDS011;21234;48.690;9.016;2022-10-19T10:47:23;16.57;;;8.90;;
705;SDS011;21234;48.690;9.016;2022-10-19T10:49:52;16.27;;;11.77;;
705;SDS011;21234;48.690;9.016;2022-10-19T10:52:21;21.63;;;19.50;;
705;SDS011;21234;48.690;9.016;2022-10-19T10:54:58;13.73;;;10.60;;
705;SDS011;21234;48.690;9.016;2022-10-19T10:57:29;11.57;;;8.90;;
705;SDS011;21234;48.690;9.016;2022-10-19T11:00:02;11.97;;;8.50;;
705;SDS011;21234;48.690;9.016;2022-10-19T11:02:37;5.93;;;5.10;;
705;SDS011;21234;48.690;9.016;2022-10-19T11:05:09;8.53;;;6.83;;
705;SDS011;21234;48.690;9.016;2022-10-19T11:07:40;6.30;;;5.40;;
705;SDS011;21234;48.690;9.016;2022-10-19T11:10:15;4.40;;;3.80;;
705;SDS011;21234;48.690;9.016;2022-10-19T11:12:48;4.37;;;3.90;;
705;SDS011;21234;48.690;9.016;2022-10-19T11:15:21;4.00;;;3.70;;
705;SDS011;21234;48.690;9.016;2022-10-19T11:17:54;5.80;;;4.77;;
705;SDS011;21234;48.690;9.016;2022-10-19T11:20:30;5.70;;;3.27;;
705;SDS011;21234;48.690;9.016;2022-10-19T11:23:02;4.37;;;3.97;;
705;SDS011;21234;48.690;9.016;2022-10-19T11:25:39;4.07;;;3.53;;
705;SDS011;21234;48.690;9.016;2022-10-19T11:28:18;8.17;;;3.70;;
705;SDS011;21234;48.690;9.016;2022-10-19T11:30:56;3.33;;;3.03;;
705;SDS011;21234;48.690;9.016;2022-10-19T11:33:33;3.50;;;3.20;;
705;SDS011;21234;48.690;9.016;2022-10-19T11:36:10;2.87;;;2.33;;
705;SDS011;21234;48.690;9.016;2022-10-19T11:38:54;3.03;;;2.73;;
705;SDS011;21234;48.690;9.016;2022-10-19T11:41:36;4.00;;;3.27;;
705;SDS011;21234;48.690;9.016;2022-10-19T11:44:14;3.40;;;2.73;;
705;SDS011;21234;48.690;9.016;2022-10-19T11:46:51;3.97;;;3.60;;
705;SDS011;21234;48.690;9.016;2022-10-19T11:49:30;5.50;;;3.87;;
705;SDS011;21234;48.690;9.016;2022-10-19T11:52:06;4.03;;;3.50;;
705;SDS011;21234;48.690;9.016;2022-10-19T11:54:44;3.33;;;3.03;;
705;SDS011;21234;48.690;9.016;2022-10-19T11:57:23;4.90;;;4.47;;
705;SDS011;21234;48.690;9.016;2022-10-19T11:59:59;4.30;;;3.90;;
705;SDS011;21234;48.690;9.016;2022-10-19T12:02:39;13.83;;;12.30;;
705;SDS011;21234;48.690;9.016;2022-10-19T12:05:20;4.60;;;3.83;;
705;SDS011;21234;48.690;9.016;2022-10-19T12:07:55;3.60;;;2.40;;
705;SDS011;21234;48.690;9.016;2022-10-19T12:10:36;4.30;;;3.17;;
705;SDS011;21234;48.690;9.016;2022-10-19T12:13:12;5.30;;;2.57;;
705;SDS011;21234;48.690;9.016;2022-10-19T12:15:42;6.07;;;3.10;;
705;SDS011;21234;48.690;9.016;2022-10-19T12:18:13;6.57;;;4.70;;
705;SDS011;21234;48.690;9.016;2022-10-19T12:20:45;4.30;;;3.30;;
705;SDS011;21234;48.690;9.016;2022-10-19T12:23:19;3.50;;;3.07;;
705;SDS011;21234;48.690;9.016;2022-10-19T12:25:49;3.33;;;3.03;;
705;SDS011;21234;48.690;9.016;2022-10-19T12:28:21;4.87;;;4.37;;
705;SDS011;21234;48.690;9.016;2022-10-19T12:30:52;4.13;;;3.73;;
705;SDS011;21234;48.690;9.016;2022-10-19T12:33:21;6.13;;;3.57;;
705;SDS011;21234;48.690;9.016;2022-10-19T12:35:54;4.80;;;4.30;;
705;SDS011;21234;48.690;9.016;2022-10-19T12:38:32;6.53;;;5.53;;
705;SDS011;21234;48.690;9.016;2022-10-19T12:41:05;7.17;;;3.70;;
705;SDS011;21234;48.690;9.016;2022-10-19T12:43:42;5.50;;;3.80;;
705;SDS011;21234;48.690;9.016;2022-10-19T12:46:20;5.10;;;4.10;;
705;SDS011;21234;48.690;9.016;2022-10-19T12:52:01;8.40;;;7.60;;
705;SDS011;21234;48.690;9.016;2022-10-19T12:54:29;7.50;;;6.20;;
705;SDS011;21234;48.690;9.016;2022-10-19T12:56:58;11.23;;;5.27;;
705;SDS011;21234;48.690;9.016;2022-10-19T12:59:28;5.80;;;4.73;;
705;SDS011;21234;48.690;9.016;2022-10-19T13:01:57;5.87;;;5.10;;
705;SDS011;21234;48.690;9.016;2022-10-19T13:04:25;8.00;;;5.60;;
705;SDS011;21234;48.690;9.016;2022-10-19T13:06:57;7.77;;;6.50;;
705;SDS011;21234;48.690;9.016;2022-10-19T13:09:28;6.07;;;4.50;;
705;SDS011;21234;48.690;9.016;2022-10-19T13:14:54;5.30;;;4.77;;
705;SDS011;21234;48.690;9.016;2022-10-19T13:23:36;8.87;;;6.70;;
705;SDS011;21234;48.690;9.016;2022-10-19T13:26:29;7.90;;;4.70;;
705;SDS011;21234;48.690;9.016;2022-10-19T13:28:58;6.83;;;5.23;;
705;SDS011;21234;48.690;9.016;2022-10-19T13:31:27;6.33;;;5.33;;
705;SDS011;21234;48.690;9.016;2022-10-19T13:33:57;6.17;;;4.60;;
705;SDS011;21234;48.690;9.016;2022-10-19T13:36:24;4.97;;;4.47;;
705;SDS011;21234;48.690;9.016;2022-10-19T13:39:01;5.80;;;4.70;;
705;SDS011;21234;48.690;9.016;2022-10-19T13:44:19;8.10;;;4.90;;
705;SDS011;21234;48.690;9.016;2022-10-19T13:47:10;6.47;;;5.17;;
705;SDS011;21234;48.690;9.016;2022-10-19T14:01:49;5.20;;;4.70;;
705;SDS011;21234;48.690;9.016;2022-10-19T14:04:38;5.20;;;4.30;;
705;SDS011;21234;48.690;9.016;2022-10-19T14:07:12;6.00;;;5.40;;
705;SDS011;21234;48.690;9.016;2022-10-19T14:12:29;6.23;;;4.90;;
705;SDS011;21234;48.690;9.016;2022-10-19T14:14:59;5.90;;;5.20;;
705;SDS011;21234;48.690;9.016;2022-10-19T14:17:26;6.20;;;4.63;;
705;SDS011;21234;48.690;9.016;2022-10-19T14:19:58;6.93;;;5.23;;
705;SDS011;21234;48.690;9.016;2022-10-19T14:22:26;6.13;;;5.50;;
705;SDS011;21234;48.690;9.016;2022-10-19T14:25:02;7.10;;;5.07;;
705;SDS011;21234;48.690;9.016;2022-10-19T14:27:32;6.20;;;5.17;;
705;SDS011;21234;48.690;9.016;2022-10-19T14:30:00;7.50;;;5.90;;
705;SDS011;21234;48.690;9.016;2022-10-19T14:32:28;10.83;;;4.70;;
705;SDS011;21234;48.690;9.016;2022-10-19T14:35:01;7.20;;;4.90;;
705;SDS011;21234;48.690;9.016;2022-10-19T14:37:30;5.30;;;4.67;;
705;SDS011;21234;48.690;9.016;2022-10-19T14:39:58;5.70;;;5.10;;
705;SDS011;21234;48.690;9.016;2022-10-19T14:42:40;6.93;;;6.13;;
705;SDS011;21234;48.690;9.016;2022-10-19T14:45:09;4.47;;;4.07;;
705;SDS011;21234;48.690;9.016;2022-10-19T14:47:49;5.83;;;4.83;;
705;SDS011;21234;48.690;9.016;2022-10-19T14:50:18;4.43;;;4.03;;
705;SDS011;21234;48.690;9.016;2022-10-19T14:52:48;6.90;;;5.30;;
705;SDS011;21234;48.690;9.016;2022-10-19T14:55:20;4.57;;;4.03;;
705;SDS011;21234;48.690;9.016;2022-10-19T14:57:48;5.80;;;4.93;;
705;SDS011;21234;48.690;9.016;2022-10-19T15:00:18;6.30;;;5.67;;
705;SDS011;21234;48.690;9.016;2022-10-19T15:02:58;5.60;;;4.23;;
705;SDS011;21234;48.690;9.016;2022-10-19T15:05:30;5.10;;;4.60;;
705;SDS011;21234;48.690;9.016;2022-10-19T15:08:04;4.97;;;4.47;;
705;SDS011;21234;48.690;9.016;2022-10-19T15:10:36;4.83;;;4.40;;
705;SDS011;21234;48.690;9.016;2022-10-19T15:13:22;5.03;;;3.40;;
705;SDS011;21234;48.690;9.016;2022-10-19T15:15:52;5.20;;;4.60;;
705;SDS011;21234;48.690;9.016;2022-10-19T15:18:21;4.60;;;4.20;;
705;SDS011;21234;48.690;9.016;2022-10-19T15:21:00;6.03;;;5.43;;
705;SDS011;21234;48.690;9.016;2022-10-19T15:23:33;6.20;;;4.60;;
705;SDS011;21234;48.690;9.016;2022-10-19T15:26:11;6.43;;;5.57;;
705;SDS011;21234;48.690;9.016;2022-10-19T15:28:40;4.93;;;4.00;;
705;SDS011;21234;48.690;9.016;2022-10-19T15:31:12;5.40;;;4.80;;
705;SDS011;21234;48.690;9.016;2022-10-19T15:33:42;4.40;;;4.00;;
705;SDS011;21234;48.690;9.016;2022-10-19T15:36:13;14.00;;;5.30;;
705;SDS011;21234;48.690;9.016;2022-10-19T15:38:44;6.47;;;5.17;;
705;SDS011;21234;48.690;9.016;2022-10-19T15:41:15;6.40;;;5.68;;
705;SDS011;21234;48.690;9.016;2022-10-19T15:43:44;5.93;;;4.63;;
705;SDS011;21234;48.690;9.016;2022-10-19T15:46:20;7.07;;;5.20;;
705;SDS011;21234;48.690;9.016;2022-10-19T15:48:50;5.57;;;4.60;;
705;SDS011;21234;48.690;9.016;2022-10-19T15:51:32;5.40;;;4.80;;